Time;durP1;ratioP1;P1;durP2;ratioP2;P2;SDS_P1;SDS_P2;PMS_P1;PMS_P2;Temp;Humidity;BMP_temperature;BMP_pressure;BME280_temperature;BME280_humidity;BME280_pressure;Samples;Min_cycle;Max_cycle;Signal;HPM_P1;HPM_P2
2023/10/12 00:01:25;;;;;;;2.27;2.27;;;21.30;75.30;;;;;;5063666;28;44043;-70
2023/10/12 00:03:58;;;;;;;2.50;2.40;;;21.20;75.50;;;;;;5069189;28;43456;-70
2023/10/12 00:06:30;;;;;;;2.13;2.13;;;21.20;75.70;;;;;;5069071;28;43414;-70
2023/10/12 00:09:03;;;;;;;2.43;2.33;;;21.20;75.80;;;;;;5067612;28;46937;-70
2023/10/12 00:11:37;;;;;;;2.10;2.00;;;21.20;75.90;;;;;;5069243;28;43520;-70
2023/10/12 00:14:06;;;;;;;2.07;2.00;;;21.10;76.10;;;;;;5068978;28;43434;-70
2023/10/12 00:16:35;;;;;;;2.07;2.07;;;21.10;76.20;;;;;;5068180;28;43561;-70
2023/10/12 00:19:11;;;;;;;1.93;1.93;;;21.10;76.30;;;;;;5068477;28;43965;-70
2023/10/12 00:21:43;;;;;;;2.30;2.20;;;21.10;76.20;;;;;;5067144;28;44757;-70
2023/10/12 00:24:13;;;;;;;2.10;2.10;;;21.00;76.20;;;;;;5069195;28;43363;-70
2023/10/12 00:26:42;;;;;;;1.90;1.90;;;21.00;76.20;;;;;;5069813;28;43387;-70
2023/10/12 00:29:10;;;;;;;2.13;2.13;;;21.00;76.40;;;;;;5067225;28;43770;-70
2023/10/12 00:31:43;;;;;;;2.10;2.00;;;21.00;76.40;;;;;;5067534;28;44909;-70
2023/10/12 00:34:12;;;;;;;2.10;2.10;;;21.00;76.20;;;;;;5067647;28;43425;-70
2023/10/12 00:36:41;;;;;;;2.37;2.27;;;21.20;75.90;;;;;;5063827;28;44169;-70
2023/10/12 00:39:10;;;;;;;2.10;2.10;;;21.30;76.10;;;;;;5067411;28;45794;-70
2023/10/12 00:41:44;;;;;;;2.00;1.90;;;21.40;75.00;;;;;;5068677;28;43432;-70
2023/10/12 00:44:12;;;;;;;2.37;2.27;;;21.40;75.00;;;;;;5069054;28;43458;-70
2023/10/12 00:46:47;;;;;;;2.00;2.00;;;21.30;75.00;;;;;;5067369;28;43352;-70
2023/10/12 00:49:19;;;;;;;1.90;1.90;;;21.30;75.30;;;;;;5067032;28;45713;-69
2023/10/12 00:51:51;;;;;;;2.00;2.00;;;21.20;75.60;;;;;;5063455;28;43380;-69
2023/10/12 00:54:27;;;;;;;2.17;2.13;;;21.20;75.70;;;;;;5067183;28;43501;-70
2023/10/12 00:56:55;;;;;;;1.90;1.90;;;21.10;75.60;;;;;;5067616;28;43436;-70
2023/10/12 00:59:27;;;;;;;1.80;1.80;;;21.10;75.80;;;;;;5067012;28;45779;-70
2023/10/12 01:01:55;;;;;;;2.20;2.20;;;21.10;76.00;;;;;;5067085;28;45158;-70
2023/10/12 01:04:25;;;;;;;2.20;2.20;;;21.10;76.10;;;;;;5070783;28;43498;-66
2023/10/12 01:06:58;;;;;;;2.10;2.10;;;21.00;76.10;;;;;;5073627;28;43475;-66
2023/10/12 01:09:39;;;;;;;2.13;2.03;;;21.00;76.10;;;;;;5066442;28;46225;-66
2023/10/12 01:12:12;;;;;;;2.20;2.20;;;21.00;76.20;;;;;;5067362;28;44975;-66
2023/10/12 01:14:43;;;;;;;2.40;2.30;;;21.00;76.20;;;;;;5067313;28;43465;-66
2023/10/12 01:17:17;;;;;;;2.10;2.10;;;21.00;76.40;;;;;;5071930;28;43632;-66
2023/10/12 01:19:47;;;;;;;2.30;2.20;;;21.00;76.40;;;;;;5071144;28;46183;-66
2023/10/12 01:22:25;;;;;;;2.07;1.97;;;21.10;76.10;;;;;;5071408;28;44695;-66
2023/10/12 01:25:10;;;;;;;2.10;2.00;;;21.20;75.60;;;;;;5070647;28;43566;-66
2023/10/12 01:27:43;;;;;;;2.00;2.00;;;21.40;75.20;;;;;;5067472;28;43452;-67
2023/10/12 01:30:19;;;;;;;1.90;1.90;;;21.40;74.70;;;;;;5064813;28;45612;-66
2023/10/12 01:32:53;;;;;;;2.20;2.10;;;21.40;74.70;;;;;;5070571;28;43967;-66
2023/10/12 01:35:30;;;;;;;2.00;2.00;;;21.40;75.00;;;;;;5070931;28;43446;-67
2023/10/12 01:38:01;;;;;;;2.33;2.27;;;21.30;75.30;;;;;;5071158;28;43579;-69
2023/10/12 01:40:42;;;;;;;2.23;2.23;;;21.20;75.40;;;;;;5087067;28;45651;-66
2023/10/12 01:43:12;;;;;;;2.00;2.00;;;21.20;75.50;;;;;;5087180;28;45074;-66
2023/10/12 01:45:44;;;;;;;1.80;1.80;;;21.20;75.60;;;;;;5069489;28;43426;-69
2023/10/12 01:48:16;;;;;;;2.23;2.23;;;21.10;75.70;;;;;;5067888;28;43562;-67
2023/10/12 01:50:46;;;;;;;2.00;2.00;;;21.10;76.00;;;;;;5071700;28;43677;-67
2023/10/12 01:53:26;;;;;;;2.50;2.40;;;21.10;76.00;;;;;;5065661;28;43924;-72
2023/10/12 01:55:54;;;;;;;2.13;2.13;;;21.10;76.00;;;;;;5062806;28;43291;-72
2023/10/12 01:58:27;;;;;;;1.77;1.77;;;21.00;76.00;;;;;;5067034;28;43566;-72
2023/10/12 02:00:55;;;;;;;2.20;2.20;;;21.00;76.20;;;;;;5066435;28;45856;-72
2023/10/12 02:03:31;;;;;;;1.93;1.93;;;21.00;76.20;;;;;;5067594;28;43437;-72
2023/10/12 02:06:01;;;;;;;1.97;1.97;;;21.00;76.10;;;;;;5065277;28;43476;-72
2023/10/12 02:08:40;;;;;;;2.23;2.13;;;21.10;75.90;;;;;;5066648;28;43698;-72
2023/10/12 02:11:11;;;;;;;2.03;2.03;;;21.30;75.50;;;;;;5059826;28;46141;-72
2023/10/12 02:13:41;;;;;;;2.10;2.10;;;21.30;75.10;;;;;;5066974;28;44821;-68
2023/10/12 02:16:12;;;;;;;2.30;2.30;;;21.30;74.90;;;;;;5071245;28;43461;-66
2023/10/12 02:18:43;;;;;;;1.93;1.93;;;21.30;75.10;;;;;;5071921;28;43453;-66
2023/10/12 02:21:12;;;;;;;1.77;1.77;;;21.20;75.30;;;;;;5070305;28;46141;-66
2023/10/12 02:23:55;;;;;;;2.00;2.00;;;21.20;75.60;;;;;;5071806;28;44906;-66
2023/10/12 02:26:33;;;;;;;2.00;2.00;;;21.10;75.70;;;;;;5074688;28;43440;-66
2023/10/12 02:31:56;;;;;;;2.13;2.07;;;21.10;75.80;;;;;;5075273;28;43619;-67
2023/10/12 02:34:26;;;;;;;2.00;2.00;;;21.10;76.00;;;;;;5075050;28;43468;-66
2023/10/12 02:37:16;;;;;;;1.97;1.97;;;21.00;76.10;;;;;;5074092;28;43500;-67
2023/10/12 02:39:46;;;;;;;2.13;2.13;;;21.00;76.10;;;;;;5073404;28;43523;-66
2023/10/12 02:42:18;;;;;;;2.00;2.00;;;21.00;76.10;;;;;;5074851;28;43607;-66
2023/10/12 02:47:34;;;;;;;2.20;2.20;;;21.00;76.20;;;;;;5073339;28;43425;-67
2023/10/12 02:50:14;;;;;;;2.00;2.00;;;20.90;76.20;;;;;;5073359;28;43374;-67
2023/10/12 02:52:44;;;;;;;2.20;2.20;;;21.00;76.90;;;;;;5073422;28;45829;-66
2023/10/12 02:55:25;;;;;;;2.30;2.30;;;21.20;75.90;;;;;;5073756;28;44983;-66
2023/10/12 02:57:56;;;;;;;1.90;1.90;;;21.20;75.30;;;;;;5072995;28;43969;-64
2023/10/12 03:00:34;;;;;;;2.10;2.10;;;21.30;75.00;;;;;;5073763;28;43740;-66
2023/10/12 03:03:07;;;;;;;2.07;2.03;;;21.30;75.00;;;;;;5073391;28;46222;-70
2023/10/12 03:05:46;;;;;;;2.17;2.17;;;21.30;75.30;;;;;;5065682;28;43483;-70
2023/10/12 03:08:17;;;;;;;2.40;2.40;;;21.20;75.40;;;;;;5068546;28;43407;-70
2023/10/12 03:13:35;;;;;;;1.97;1.97;;;21.10;75.70;;;;;;5070452;28;43780;-69
2023/10/12 03:16:12;;;;;;;2.10;2.10;;;21.10;75.80;;;;;;5068665;28;45231;-70
2023/10/12 03:18:42;;;;;;;2.40;2.30;;;21.10;75.90;;;;;;5063193;28;43449;-70
2023/10/12 03:21:14;;;;;;;2.50;2.40;;;21.00;76.00;;;;;;5068756;28;43510;-75
2023/10/12 03:23:46;;;;;;;2.10;2.10;;;21.00;76.10;;;;;;5068850;28;45940;-69
2023/10/12 03:26:24;;;;;;;2.23;2.23;;;21.10;76.00;;;;;;5067845;28;45120;-70
2023/10/12 03:28:53;;;;;;;2.43;2.37;;;21.20;75.60;;;;;;5068303;28;43514;-70
2023/10/12 03:31:25;;;;;;;2.30;2.30;;;21.20;75.30;;;;;;5069996;28;43333;-69
2023/10/12 03:33:54;;;;;;;2.17;2.03;;;21.20;75.30;;;;;;5068084;28;43985;-70
2023/10/12 03:36:26;;;;;;;2.27;2.17;;;21.20;75.60;;;;;;5066021;28;43909;-69
2023/10/12 03:39:25;;;;;;;2.27;2.20;;;21.20;75.50;;;;;;5068893;28;44108;-70
2023/10/12 03:42:12;;;;;;;1.80;1.80;;;21.20;75.40;;;;;;5064757;28;43456;-70
2023/10/12 03:44:51;;;;;;;2.07;2.07;;;21.20;75.70;;;;;;5069723;28;43809;-70
2023/10/12 03:47:29;;;;;;;2.30;2.20;;;21.10;75.80;;;;;;5062918;28;43448;-69
2023/10/12 03:50:05;;;;;;;2.03;2.03;;;21.10;75.90;;;;;;5064178;28;43380;-69
2023/10/12 03:52:39;;;;;;;1.90;1.90;;;21.10;76.60;;;;;;5070006;28;43319;-69
2023/10/12 03:55:24;;;;;;;2.23;2.23;;;21.10;75.90;;;;;;5065915;28;46394;-70
2023/10/12 03:58:05;;;;;;;1.97;1.97;;;21.00;75.90;;;;;;5069405;28;43268;-70
2023/10/12 04:00:41;;;;;;;2.20;2.20;;;21.00;76.10;;;;;;5063916;28;43438;-70
2023/10/12 04:03:18;;;;;;;2.23;2.23;;;21.10;76.10;;;;;;5069986;28;43399;-70
2023/10/12 04:05:50;;;;;;;2.30;2.30;;;21.20;75.80;;;;;;5067809;28;45839;-70
2023/10/12 04:08:38;;;;;;;2.10;2.00;;;21.30;75.30;;;;;;5069461;28;43467;-70
2023/10/12 04:16:57;;;;;;;2.03;2.03;;;21.40;74.70;;;;;;5060813;28;45383;-67
2023/10/12 04:19:31;;;;;;;2.17;2.10;;;21.30;74.90;;;;;;5069375;28;43458;-67
2023/10/12 04:22:16;;;;;;;2.30;2.13;;;21.20;75.20;;;;;;5071591;28;43430;-66
2023/10/12 04:24:45;;;;;;;2.10;2.10;;;21.20;75.70;;;;;;5074157;28;43316;-65
2023/10/12 04:30:00;;;;;;;2.20;2.10;;;21.10;75.40;;;;;;5064004;28;43348;-64
2023/10/12 04:32:51;;;;;;;2.43;2.23;;;21.10;75.70;;;;;;5070863;28;43451;-65
2023/10/12 04:35:40;;;;;;;2.10;2.10;;;21.10;76.00;;;;;;5071113;28;43422;-65
2023/10/12 04:38:09;;;;;;;2.17;2.17;;;21.10;75.90;;;;;;5073055;28;43601;-67
2023/10/12 04:40:38;;;;;;;2.10;2.00;;;21.10;75.90;;;;;;5073368;28;43390;-66
2023/10/12 04:43:07;;;;;;;2.10;2.10;;;21.10;75.90;;;;;;5073461;28;43411;-66
2023/10/12 04:46:26;;;;;;;2.30;2.30;;;21.00;76.10;;;;;;5074049;28;43459;-66
2023/10/12 04:49:03;;;;;;;2.30;2.30;;;21.00;76.10;;;;;;5072138;28;43831;-67
2023/10/12 04:51:30;;;;;;;2.43;2.33;;;21.20;75.80;;;;;;5069373;28;43523;-69
2023/10/12 04:54:06;;;;;;;2.67;2.40;;;21.30;75.30;;;;;;5071325;28;43426;-65
2023/10/12 04:56:36;;;;;;;2.50;2.40;;;21.40;74.80;;;;;;5073175;28;43439;-65
2023/10/12 04:59:15;;;;;;;2.33;2.33;;;21.50;74.30;;;;;;5068907;28;43619;-64
2023/10/12 05:02:13;;;;;;;2.43;2.33;;;21.40;74.40;;;;;;5072159;28;43384;-65
2023/10/12 05:05:14;;;;;;;2.40;2.40;;;21.40;75.50;;;;;;5072998;28;43359;-66
2023/10/12 05:07:53;;;;;;;2.67;2.47;;;21.30;75.10;;;;;;5073664;28;43391;-66
2023/10/12 05:10:26;;;;;;;2.17;2.17;;;21.20;75.30;;;;;;5066363;28;43891;-66
2023/10/12 05:13:03;;;;;;;2.13;2.13;;;21.20;75.40;;;;;;5066483;28;43441;-65
2023/10/12 05:15:39;;;;;;;2.10;2.10;;;21.20;75.50;;;;;;5068356;28;43282;-65
2023/10/12 05:18:09;;;;;;;2.27;2.17;;;21.10;75.60;;;;;;5073990;28;44040;-64
2023/10/12 05:20:41;;;;;;;2.27;2.27;;;21.10;75.90;;;;;;5069007;28;43616;-66
2023/10/12 05:23:09;;;;;;;2.30;2.30;;;21.10;75.80;;;;;;5073473;28;44092;-69
2023/10/12 05:25:48;;;;;;;2.00;2.00;;;21.10;75.80;;;;;;5088152;28;43422;-70
2023/10/12 05:28:17;;;;;;;2.33;2.33;;;21.10;75.90;;;;;;5087075;28;43332;-70
2023/10/12 05:30:50;;;;;;;2.30;2.30;;;21.00;75.90;;;;;;5088345;28;45934;-70
2023/10/12 05:33:38;;;;;;;2.10;2.10;;;21.00;76.10;;;;;;5084507;28;43385;-70
2023/10/12 05:36:09;;;;;;;2.30;2.30;;;21.10;76.00;;;;;;5084485;28;43450;-70
2023/10/12 05:38:38;;;;;;;2.13;2.13;;;21.20;75.60;;;;;;5089317;28;43311;-70
2023/10/12 05:41:11;;;;;;;3.60;2.30;;;21.30;75.00;;;;;;5088449;28;43681;-70
2023/10/12 05:43:48;;;;;;;2.10;2.10;;;21.40;74.70;;;;;;5082765;28;43363;-67
2023/10/12 05:46:16;;;;;;;2.50;2.50;;;21.40;74.70;;;;;;5069942;28;43395;-66
2023/10/12 05:48:46;;;;;;;2.37;2.27;;;21.30;74.80;;;;;;5072916;28;43277;-67
2023/10/12 05:51:29;;;;;;;2.30;2.30;;;21.30;75.10;;;;;;5071151;28;43635;-66
2023/10/12 05:54:06;;;;;;;2.73;2.67;;;21.20;75.40;;;;;;5072265;28;43475;-66
2023/10/12 05:56:37;;;;;;;2.40;2.30;;;21.20;75.50;;;;;;5071505;28;43433;-66
2023/10/12 05:59:12;;;;;;;2.03;2.03;;;21.20;75.60;;;;;;5069013;28;43390;-66
2023/10/12 06:01:40;;;;;;;2.40;2.40;;;21.10;75.70;;;;;;5072305;28;43598;-67
2023/10/12 06:04:14;;;;;;;2.37;2.37;;;21.10;75.80;;;;;;5065124;28;43338;-66
2023/10/12 06:06:43;;;;;;;2.70;2.50;;;21.00;75.90;;;;;;5071614;28;43502;-65
2023/10/12 06:09:24;;;;;;;2.43;2.33;;;21.10;75.90;;;;;;5065643;28;43372;-65
2023/10/12 06:12:06;;;;;;;2.60;2.60;;;21.20;75.60;;;;;;5069899;28;43844;-65
2023/10/12 06:14:34;;;;;;;2.53;2.43;;;21.20;75.30;;;;;;5071277;28;43460;-65
2023/10/12 06:17:03;;;;;;;2.43;2.33;;;21.20;75.30;;;;;;5071933;28;43519;-65
2023/10/12 06:19:35;;;;;;;2.30;2.30;;;21.20;75.60;;;;;;5072082;28;43447;-67
2023/10/12 06:22:13;;;;;;;2.50;2.50;;;21.20;75.60;;;;;;5071049;28;43620;-65
2023/10/12 06:24:43;;;;;;;2.60;2.50;;;21.20;75.50;;;;;;5068909;28;43851;-66
2023/10/12 06:27:23;;;;;;;2.40;2.30;;;21.10;75.50;;;;;;5071453;28;43362;-66
2023/10/12 06:29:52;;;;;;;2.80;2.60;;;21.10;75.70;;;;;;5067791;28;43452;-66
2023/10/12 06:32:28;;;;;;;2.30;2.30;;;21.10;75.90;;;;;;5070231;28;45483;-66
2023/10/12 06:35:12;;;;;;;2.70;2.60;;;21.10;75.90;;;;;;5068410;28;44030;-71
2023/10/12 06:37:59;;;;;;;2.23;2.23;;;21.10;75.90;;;;;;5067048;28;44129;-72
2023/10/12 06:40:37;;;;;;;2.13;2.00;;;21.00;75.90;;;;;;5061947;28;43629;-71
2023/10/12 06:45:51;;;;;;;2.20;2.20;;;21.00;76.20;;;;;;5043998;28;43474;-71
2023/10/12 06:48:43;;;;;;;2.30;2.30;;;21.10;76.00;;;;;;5066233;28;43932;-71
2023/10/12 06:51:13;;;;;;;2.80;2.70;;;21.20;75.60;;;;;;5064305;28;43419;-72
2023/10/12 06:53:45;;;;;;;2.63;2.53;;;21.20;75.30;;;;;;5073407;28;43855;-70
2023/10/12 06:59:22;;;;;;;2.30;2.20;;;21.20;75.50;;;;;;5077560;28;43350;-69
2023/10/12 07:01:53;;;;;;;2.37;2.37;;;21.20;75.40;;;;;;5089317;28;43442;-69
2023/10/12 07:04:27;;;;;;;2.33;2.33;;;21.20;75.40;;;;;;5088151;28;43839;-69
2023/10/12 07:06:56;;;;;;;3.30;2.80;;;21.10;75.50;;;;;;5082657;28;44950;-69
2023/10/12 07:09:35;;;;;;;3.33;3.13;;;21.10;75.80;;;;;;5088353;28;43391;-69
2023/10/12 07:12:06;;;;;;;4.63;3.30;;;21.10;75.90;;;;;;5090329;28;43394;-70
2023/10/12 07:14:38;;;;;;;3.80;3.43;;;21.10;75.80;;;;;;5091289;28;43849;-70
2023/10/12 07:17:08;;;;;;;3.97;3.67;;;21.00;75.80;;;;;;5090870;28;43408;-71
2023/10/12 07:19:40;;;;;;;7.17;4.10;;;21.00;75.90;;;;;;5089631;28;43466;-70
2023/10/12 07:22:15;;;;;;;8.37;4.07;;;21.00;76.20;;;;;;5091594;28;43490;-70
2023/10/12 07:24:43;;;;;;;4.63;3.80;;;21.00;76.00;;;;;;5085227;28;43748;-70
2023/10/12 07:27:17;;;;;;;3.50;3.30;;;21.00;76.00;;;;;;5091123;28;43446;-70
2023/10/12 07:29:47;;;;;;;3.90;3.57;;;21.00;76.00;;;;;;5091481;28;43764;-70
2023/10/12 07:32:31;;;;;;;7.30;4.47;;;21.00;76.20;;;;;;5090929;28;44349;-70
2023/10/12 07:35:07;;;;;;;9.67;5.23;;;20.90;76.20;;;;;;5090149;28;43859;-71
2023/10/12 07:37:41;;;;;;;7.53;4.40;;;21.00;76.20;;;;;;5090949;28;43461;-70
2023/10/12 07:40:17;;;;;;;6.30;4.47;;;21.10;75.90;;;;;;5089515;28;43902;-71
2023/10/12 07:42:47;;;;;;;4.47;4.07;;;21.20;75.30;;;;;;5084997;28;43869;-70
2023/10/12 07:45:15;;;;;;;7.27;4.60;;;21.40;74.90;;;;;;5070874;28;43896;-72
2023/10/12 07:47:46;;;;;;;6.93;4.90;;;21.40;74.70;;;;;;5069543;28;43376;-72
2023/10/12 07:50:15;;;;;;;5.70;4.53;;;21.40;74.80;;;;;;5070104;28;43405;-72
2023/10/12 07:52:47;;;;;;;7.77;4.90;;;21.30;75.00;;;;;;5070191;28;43447;-72
2023/10/12 07:55:17;;;;;;;10.17;5.07;;;21.20;75.20;;;;;;5069569;28;43635;-72
2023/10/12 07:57:47;;;;;;;9.40;5.07;;;21.20;75.50;;;;;;5069582;28;43341;-72
2023/10/12 08:03:19;;;;;;;8.00;4.83;;;21.10;75.50;;;;;;5067271;28;43484;-66
2023/10/12 08:05:56;;;;;;;6.97;5.23;;;21.10;75.80;;;;;;5068162;28;43735;-66
2023/10/12 08:08:37;;;;;;;6.77;5.10;;;21.00;76.70;;;;;;5069054;28;43988;-66
2023/10/12 08:11:18;;;;;;;9.80;5.83;;;21.00;76.00;;;;;;5073436;28;43394;-66
2023/10/12 08:13:49;;;;;;;8.93;5.87;;;21.00;75.90;;;;;;5074207;28;43355;-69
2023/10/12 08:16:25;;;;;;;8.43;4.83;;;21.00;76.00;;;;;;5071087;28;43776;-67
2023/10/12 08:19:23;;;;;;;9.93;5.87;;;20.90;76.10;;;;;;5067781;28;43440;-67
2023/10/12 08:21:59;;;;;;;11.97;5.67;;;20.90;76.30;;;;;;5067693;28;43460;-67
2023/10/12 08:24:30;;;;;;;9.97;5.87;;;20.90;76.20;;;;;;5074620;28;43816;-67
2023/10/12 08:27:00;;;;;;;11.43;6.10;;;21.10;76.10;;;;;;5073246;28;43942;-65
2023/10/12 08:32:29;;;;;;;9.67;6.33;;;21.30;75.10;;;;;;5073404;28;43360;-66
2023/10/12 08:43:45;;;;;;;9.73;5.77;;;21.20;75.50;;;;;;5071675;28;43449;-65
2023/10/12 08:46:51;;;;;;;9.37;6.13;;;21.10;75.50;;;;;;5073207;28;43497;-65
2023/10/12 08:49:53;;;;;;;7.70;5.60;;;21.10;75.60;;;;;;5071182;28;43963;-65
2023/10/12 08:52:27;;;;;;;10.40;6.30;;;21.10;75.80;;;;;;5068531;28;43451;-66
2023/10/12 08:54:58;;;;;;;10.90;5.80;;;21.00;76.00;;;;;;5085597;28;43462;-69
2023/10/12 08:57:38;;;;;;;8.87;6.33;;;21.00;76.10;;;;;;5090768;28;43369;-70
2023/10/12 09:00:23;;;;;;;8.47;5.80;;;21.00;76.00;;;;;;5087497;28;45795;-70
2023/10/12 09:02:58;;;;;;;7.40;5.63;;;21.00;76.10;;;;;;5083721;28;43367;-68
2023/10/12 09:05:28;;;;;;;8.80;6.13;;;20.90;76.20;;;;;;5089339;28;43377;-71
2023/10/12 09:08:08;;;;;;;8.80;5.70;;;20.90;76.30;;;;;;5088557;28;43483;-68
2023/10/12 09:11:02;;;;;;;9.40;5.37;;;20.90;76.20;;;;;;5088790;28;45672;-68
2023/10/12 09:13:39;;;;;;;7.73;5.50;;;21.10;76.00;;;;;;5079308;28;43626;-70
2023/10/12 09:16:14;;;;;;;7.10;5.60;;;21.20;75.30;;;;;;5068398;28;43728;-71
2023/10/12 09:18:46;;;;;;;7.30;5.77;;;21.30;75.00;;;;;;5063920;28;43390;-71
2023/10/12 09:21:23;;;;;;;6.93;5.73;;;21.30;74.80;;;;;;5068097;28;45120;-71
2023/10/12 09:23:58;;;;;;;7.10;5.70;;;21.30;75.00;;;;;;5068466;28;43365;-71
2023/10/12 09:26:31;;;;;;;7.27;5.47;;;21.20;75.30;;;;;;5068483;28;43965;-71
2023/10/12 09:29:20;;;;;;;7.47;5.80;;;21.10;75.50;;;;;;5068863;28;43411;-71
2023/10/12 09:32:15;;;;;;;6.93;5.53;;;21.10;75.70;;;;;;5063063;28;43907;-71
2023/10/12 09:34:43;;;;;;;7.63;5.17;;;21.10;75.70;;;;;;5066679;28;43516;-71
2023/10/12 09:37:17;;;;;;;8.17;5.60;;;21.10;75.90;;;;;;5068426;28;43396;-72
2023/10/12 09:39:46;;;;;;;6.27;5.67;;;21.00;75.90;;;;;;5068497;28;43413;-71
2023/10/12 09:42:30;;;;;;;6.83;5.53;;;21.00;76.20;;;;;;5068392;28;43832;-71
2023/10/12 09:45:04;;;;;;;7.67;5.37;;;21.00;76.10;;;;;;5067990;28;43367;-71
2023/10/12 09:47:50;;;;;;;5.27;4.87;;;21.00;76.10;;;;;;5067801;28;44169;-72
2023/10/12 09:50:19;;;;;;;5.40;4.90;;;20.90;76.10;;;;;;5068851;28;43519;-72
2023/10/12 09:52:57;;;;;;;5.33;4.83;;;20.90;76.30;;;;;;5067612;28;43705;-72
2023/10/12 09:55:32;;;;;;;7.67;5.33;;;20.90;76.30;;;;;;5067944;28;43382;-71
2023/10/12 09:58:14;;;;;;;6.27;5.27;;;21.10;76.10;;;;;;5062102;28;43398;-71
2023/10/12 10:01:01;;;;;;;5.93;5.30;;;21.20;75.70;;;;;;5068452;28;43382;-72
2023/10/12 10:03:38;;;;;;;5.93;5.43;;;21.30;75.20;;;;;;5068702;28;43914;-66
2023/10/12 10:06:19;;;;;;;5.93;5.00;;;21.30;74.90;;;;;;5071056;28;43398;-66
2023/10/12 10:09:04;;;;;;;6.30;5.70;;;21.30;75.00;;;;;;5067872;28;43413;-70
2023/10/12 10:11:33;;;;;;;6.17;5.30;;;21.20;75.20;;;;;;5069171;28;43421;-66
2023/10/12 10:14:03;;;;;;;5.30;4.87;;;21.20;76.30;;;;;;5071136;28;43532;-66
2023/10/12 10:16:46;;;;;;;5.40;4.73;;;21.10;75.60;;;;;;5070916;28;45076;-66
2023/10/12 10:19:16;;;;;;;6.50;4.90;;;21.10;75.70;;;;;;5086787;28;43406;-66
2023/10/12 10:21:50;;;;;;;5.63;5.13;;;21.10;75.80;;;;;;5072186;28;43462;-67
2023/10/12 10:24:24;;;;;;;8.47;5.77;;;21.00;75.90;;;;;;5069458;28;43955;-71
2023/10/12 10:27:09;;;;;;;6.10;5.47;;;21.00;76.10;;;;;;5061714;28;45118;-70
2023/10/12 10:29:42;;;;;;;5.90;5.40;;;21.00;76.10;;;;;;5079912;28;43488;-70
2023/10/12 10:32:14;;;;;;;5.03;4.63;;;21.00;76.10;;;;;;5067868;28;43423;-70
2023/10/12 10:34:43;;;;;;;5.27;4.87;;;21.00;76.20;;;;;;5067259;28;43778;-70
2023/10/12 10:37:15;;;;;;;4.80;4.50;;;20.90;76.20;;;;;;5066945;28;43433;-70
2023/10/12 10:39:44;;;;;;;5.13;4.73;;;20.90;76.30;;;;;;5067343;28;43418;-73
2023/10/12 10:42:13;;;;;;;5.73;5.10;;;21.00;76.10;;;;;;5067259;28;43343;-70
2023/10/12 10:44:42;;;;;;;5.70;5.20;;;21.20;75.80;;;;;;5067926;28;43952;-69
2023/10/12 10:47:15;;;;;;;5.50;5.00;;;21.30;76.00;;;;;;5070215;28;44021;-69
2023/10/12 10:49:48;;;;;;;5.37;4.97;;;21.30;74.90;;;;;;5070795;28;43406;-71
2023/10/12 10:52:20;;;;;;;5.03;4.63;;;21.30;74.80;;;;;;5064714;28;43928;-71
2023/10/12 10:55:00;;;;;;;5.53;5.13;;;21.30;75.00;;;;;;5065049;28;45117;-70
2023/10/12 10:57:37;;;;;;;5.60;5.10;;;21.20;75.30;;;;;;5070406;28;43405;-70
2023/10/12 11:00:15;;;;;;;5.77;5.27;;;21.20;75.70;;;;;;5070700;28;43361;-70
2023/10/12 11:02:48;;;;;;;5.63;5.23;;;21.10;75.60;;;;;;5069186;28;43842;-70
2023/10/12 11:05:19;;;;;;;5.00;4.60;;;21.10;75.70;;;;;;5067490;28;43674;-70
2023/10/12 11:07:50;;;;;;;5.03;4.67;;;21.10;75.80;;;;;;5068491;28;44727;-70
2023/10/12 11:10:31;;;;;;;5.47;5.07;;;21.00;75.90;;;;;;5061393;28;43384;-70
2023/10/12 11:13:02;;;;;;;6.10;5.50;;;21.00;76.10;;;;;;5066224;28;44024;-70
2023/10/12 11:15:31;;;;;;;5.63;5.17;;;21.00;76.00;;;;;;5074692;28;43619;-67
2023/10/12 11:18:07;;;;;;;4.67;4.47;;;21.00;76.00;;;;;;5074318;28;43470;-66
2023/10/12 11:20:40;;;;;;;4.83;4.50;;;21.00;76.20;;;;;;5073440;28;43423;-66
2023/10/12 11:23:12;;;;;;;5.17;4.77;;;21.00;76.20;;;;;;5090503;28;43590;-67
2023/10/12 11:25:43;;;;;;;4.80;4.40;;;20.90;76.40;;;;;;5074950;28;43860;-66
2023/10/12 11:28:21;;;;;;;5.27;4.87;;;21.00;76.20;;;;;;5074869;28;43382;-65
2023/10/12 11:30:51;;;;;;;5.40;5.00;;;21.10;75.80;;;;;;5073619;28;43440;-66
2023/10/12 11:33:28;;;;;;;4.80;4.50;;;21.20;75.30;;;;;;5068578;28;43423;-71
2023/10/12 11:36:03;;;;;;;5.23;4.83;;;21.30;75.00;;;;;;5070245;28;43676;-71
2023/10/12 11:38:32;;;;;;;4.97;4.67;;;21.30;75.00;;;;;;5068681;28;44685;-73
2023/10/12 11:41:12;;;;;;;5.10;4.80;;;21.20;75.10;;;;;;5070277;28;43867;-72
2023/10/12 11:43:49;;;;;;;5.07;4.67;;;21.20;75.40;;;;;;5069171;28;43418;-72
2023/10/12 11:46:17;;;;;;;5.37;5.03;;;21.10;75.80;;;;;;5069553;28;43909;-71
2023/10/12 11:49:00;;;;;;;5.20;4.80;;;21.10;75.80;;;;;;5069848;28;43420;-71
2023/10/12 11:51:28;;;;;;;4.80;4.50;;;21.10;75.80;;;;;;5068492;28;43402;-72
2023/10/12 11:53:58;;;;;;;4.70;4.40;;;21.00;75.90;;;;;;5070225;28;43489;-72
2023/10/12 11:56:29;;;;;;;4.97;4.57;;;21.00;76.00;;;;;;5068250;28;43607;-72
2023/10/12 11:58:57;;;;;;;4.93;4.63;;;21.00;76.30;;;;;;5069793;28;43510;-71
2023/10/12 12:01:27;;;;;;;5.17;4.80;;;21.00;76.20;;;;;;5067198;28;43523;-72
2023/10/12 12:03:57;;;;;;;4.63;4.33;;;21.10;75.80;;;;;;5070327;28;43460;-71
2023/10/12 12:06:26;;;;;;;4.77;4.47;;;21.10;75.50;;;;;;5066788;28;45486;-70
2023/10/12 12:08:59;;;;;;;5.23;4.80;;;21.10;75.50;;;;;;5068147;28;44843;-71
2023/10/12 12:11:31;;;;;;;5.20;4.80;;;21.10;75.70;;;;;;5068394;28;43498;-71
2023/10/12 12:13:59;;;;;;;4.80;4.50;;;21.10;75.70;;;;;;5070324;28;43943;-71
2023/10/12 12:16:27;;;;;;;4.87;4.60;;;21.10;75.70;;;;;;5068750;28;43946;-71
2023/10/12 12:18:58;;;;;;;4.83;4.53;;;21.10;75.80;;;;;;5069654;28;43402;-72
2023/10/12 12:21:35;;;;;;;4.33;4.13;;;21.00;75.90;;;;;;5069038;28;43461;-70
2023/10/12 12:24:21;;;;;;;4.73;4.43;;;21.00;76.10;;;;;;5069870;28;43397;-72
2023/10/12 12:26:52;;;;;;;5.37;4.97;;;21.00;76.10;;;;;;5063889;28;43890;-71
2023/10/12 12:29:26;;;;;;;4.43;4.23;;;21.10;75.70;;;;;;5069405;28;43395;-72
2023/10/12 12:32:03;;;;;;;5.03;4.13;;;21.20;75.50;;;;;;5069235;28;43669;-71
2023/10/12 12:34:41;;;;;;;4.77;4.47;;;21.20;75.30;;;;;;5069812;28;43370;-72
2023/10/12 12:37:09;;;;;;;5.00;4.60;;;21.20;75.50;;;;;;5069297;28;43613;-72
2023/10/12 12:39:38;;;;;;;4.87;4.57;;;21.20;75.60;;;;;;5069624;28;43376;-72
2023/10/12 12:42:09;;;;;;;4.67;4.37;;;21.20;75.60;;;;;;5068928;28;43338;-72
2023/10/12 12:44:39;;;;;;;4.83;4.30;;;21.10;75.50;;;;;;5070199;28;43456;-70
2023/10/12 12:47:09;;;;;;;4.60;4.30;;;21.10;75.80;;;;;;5068513;28;43763;-70
2023/10/12 12:49:38;;;;;;;4.80;4.60;;;21.00;75.90;;;;;;5068754;28;43980;-69
2023/10/12 12:52:09;;;;;;;4.53;4.33;;;21.00;76.00;;;;;;5068931;28;43336;-69
2023/10/12 12:54:37;;;;;;;4.70;4.30;;;21.00;76.00;;;;;;5068723;28;43414;-69
2023/10/12 12:57:09;;;;;;;4.70;4.50;;;21.00;76.10;;;;;;5068483;28;44898;-69
2023/10/12 12:59:38;;;;;;;4.40;4.10;;;21.00;76.30;;;;;;5065779;28;43502;-70
2023/10/12 13:02:07;;;;;;;4.73;4.43;;;20.90;76.30;;;;;;5065714;28;43979;-70
2023/10/12 13:04:35;;;;;;;4.80;4.50;;;20.90;76.30;;;;;;5068715;28;44030;-69
2023/10/12 13:07:08;;;;;;;3.87;3.67;;;21.00;76.30;;;;;;5067663;28;45267;-70
2023/10/12 13:09:37;;;;;;;4.23;4.07;;;20.90;76.30;;;;;;5068663;28;43422;-70
2023/10/12 13:12:08;;;;;;;4.60;4.40;;;20.90;76.40;;;;;;5068041;28;43409;-70
2023/10/12 13:14:42;;;;;;;4.30;4.00;;;20.90;76.60;;;;;;5068860;28;43450;-70
2023/10/12 13:17:11;;;;;;;4.50;4.30;;;20.90;76.50;;;;;;5068129;28;43734;-69
2023/10/12 13:19:44;;;;;;;3.93;3.73;;;21.00;76.20;;;;;;5068223;28;43382;-71
2023/10/12 13:22:14;;;;;;;5.07;4.67;;;21.20;75.80;;;;;;5068313;28;43509;-73
2023/10/12 13:24:42;;;;;;;5.00;4.63;;;21.30;75.30;;;;;;5068312;28;43403;-70
2023/10/12 13:27:16;;;;;;;4.30;4.10;;;21.30;74.90;;;;;;5068000;28;43956;-69
2023/10/12 13:29:48;;;;;;;4.73;4.37;;;21.30;74.80;;;;;;5068253;28;43367;-70
2023/10/12 13:32:17;;;;;;;3.83;3.63;;;21.30;75.00;;;;;;5066539;28;43952;-70
2023/10/12 13:34:45;;;;;;;3.90;3.70;;;21.20;75.30;;;;;;5068752;28;43384;-70
2023/10/12 13:37:16;;;;;;;4.43;4.23;;;21.10;75.60;;;;;;5067718;28;43611;-70
2023/10/12 13:39:44;;;;;;;4.40;4.20;;;21.10;75.70;;;;;;5067969;28;43975;-70
2023/10/12 13:42:12;;;;;;;4.30;4.00;;;21.10;75.80;;;;;;5066276;28;43407;-70
2023/10/12 13:44:42;;;;;;;4.07;3.87;;;21.10;75.90;;;;;;5068567;28;43412;-70
2023/10/12 13:47:12;;;;;;;4.27;4.07;;;21.00;76.10;;;;;;5067305;28;43581;-70
2023/10/12 13:49:41;;;;;;;4.13;3.93;;;21.00;76.30;;;;;;5068057;28;43473;-70
2023/10/12 13:52:09;;;;;;;4.00;3.73;;;21.00;76.20;;;;;;5067901;28;43448;-70
2023/10/12 13:54:45;;;;;;;4.17;3.97;;;21.00;76.20;;;;;;5079900;28;43582;-69
2023/10/12 13:57:14;;;;;;;4.00;3.90;;;21.00;76.30;;;;;;5082743;28;45682;-70
2023/10/12 13:59:45;;;;;;;4.37;4.17;;;20.90;76.50;;;;;;5086793;28;43907;-70